Terminal Aerodrome Forecast
Issued by NWS

Home | Current Version | Previous Version | Text Only | Print | Product List | Glossary On
Versions: 1 2 3 4 5 6 7 8 9 10 11 12 13 14 15
000
FTUS43 KMPX 272035 AAA
TAFAXN
TAF AMD
KAXN 272035Z 2721/2818 18011KT P6SM BKN025 OVC050
     FM272300 17008KT P6SM VCTS SCT025CB OVC040
     FM280100 15006KT P6SM SCT030 SCT200
     FM280900 14006KT 4SM BR SCT070 BKN100
     FM281300 13006KT 4SM BR SCT012 BKN030
     FM281500 16007KT P6SM SCT025 BKN100=

USA.gov is the U.S. government's official web portal to all federal, state and local government web resources and services.